createdAt,value
2018-04-15T00:00:53.592Z,99.90
2018-04-15T00:03:28.375Z,99.90
2018-04-15T00:05:55.963Z,99.90
2018-04-15T00:08:29.773Z,99.90
2018-04-15T00:10:57.319Z,99.90
2018-04-15T00:13:24.835Z,99.90
2018-04-15T00:15:52.351Z,99.90
2018-04-15T00:18:19.912Z,99.90
2018-04-15T00:20:47.436Z,99.90
2018-04-15T00:23:15.018Z,99.90
2018-04-15T00:25:43.304Z,99.90
2018-04-15T00:28:18.022Z,99.90
2018-04-15T00:30:45.555Z,99.90
2018-04-15T00:33:13.096Z,99.90
2018-04-15T00:35:40.615Z,99.90
2018-04-15T00:38:08.154Z,99.90
2018-04-15T00:40:36.802Z,99.90
2018-04-15T00:43:04.336Z,99.90
2018-04-15T00:45:31.860Z,99.90
2018-04-15T00:48:10.691Z,99.90
2018-04-15T00:50:38.216Z,99.90
2018-04-15T00:53:05.751Z,99.90
2018-04-15T00:55:33.267Z,99.90
2018-04-15T00:58:37.026Z,99.90
2018-04-15T01:01:04.556Z,99.90
2018-04-15T01:03:32.216Z,99.90
2018-04-15T01:05:59.734Z,99.90
2018-04-15T01:08:28.025Z,99.90
2018-04-15T01:10:55.563Z,99.90
2018-04-15T01:13:23.847Z,99.90
2018-04-15T01:15:52.155Z,99.90
2018-04-15T01:18:19.686Z,99.90
2018-04-15T01:20:47.999Z,99.90
2018-04-15T01:23:15.524Z,99.90
2018-04-15T01:25:43.836Z,99.90
2018-04-15T01:28:30.463Z,99.90
2018-04-15T01:30:58.008Z,99.90
2018-04-15T01:33:25.524Z,99.90
2018-04-15T01:35:53.872Z,99.90
2018-04-15T01:38:31.643Z,99.90
2018-04-15T01:40:59.187Z,99.90
2018-04-15T01:43:26.716Z,99.90
2018-04-15T01:45:54.251Z,99.90
2018-04-15T01:48:21.784Z,99.90
2018-04-15T01:50:49.305Z,99.90
2018-04-15T01:53:16.847Z,99.90
2018-04-15T01:55:45.132Z,99.90
2018-04-15T01:58:12.683Z,99.90
2018-04-15T02:00:40.213Z,99.90
2018-04-15T02:03:07.751Z,99.90
2018-04-15T02:05:35.268Z,99.90
2018-04-15T02:08:11.026Z,99.90
2018-04-15T02:10:38.545Z,99.90
2018-04-15T02:13:06.084Z,99.90
2018-04-15T02:15:34.366Z,99.90
2018-04-15T02:18:02.895Z,99.90
2018-04-15T02:20:30.444Z,99.90
2018-04-15T02:22:58.748Z,99.90
2018-04-15T02:25:26.263Z,99.90
2018-04-15T02:28:01.627Z,99.90
2018-04-15T02:30:29.944Z,99.90
2018-04-15T02:32:57.482Z,99.90
2018-04-15T02:35:25.000Z,99.90
2018-04-15T02:37:53.529Z,99.90
2018-04-15T02:40:21.806Z,99.90
2018-04-15T02:42:49.323Z,99.90
2018-04-15T02:45:17.619Z,99.90
2018-04-15T02:47:45.147Z,99.90
2018-04-15T02:50:13.450Z,99.90
2018-04-15T02:52:40.964Z,99.90
2018-04-15T02:55:08.494Z,99.90
2018-04-15T02:57:37.031Z,99.90
2018-04-15T03:00:05.344Z,99.90
2018-04-15T03:02:32.863Z,99.90
2018-04-15T03:05:01.183Z,99.90
2018-04-15T03:07:44.135Z,99.90
2018-04-15T03:10:11.716Z,99.90
2018-04-15T03:12:40.008Z,99.90
2018-04-15T03:15:08.306Z,99.90
2018-04-15T03:17:35.836Z,99.90
2018-04-15T03:20:04.139Z,99.90
2018-04-15T03:22:31.657Z,99.90
2018-04-15T03:24:59.196Z,99.90
2018-04-15T03:27:27.705Z,99.90
2018-04-15T03:29:55.244Z,99.90
2018-04-15T03:32:22.766Z,99.90
2018-04-15T03:34:51.052Z,99.90
2018-04-15T03:37:31.228Z,99.90
2018-04-15T03:39:58.774Z,99.90
2018-04-15T03:42:26.293Z,99.90
2018-04-15T03:44:53.820Z,99.90
2018-04-15T03:47:22.327Z,99.90
2018-04-15T03:49:49.851Z,99.90
2018-04-15T03:52:17.436Z,99.90
2018-04-15T03:54:44.931Z,99.90
2018-04-15T03:57:13.478Z,99.90
2018-04-15T03:59:41.768Z,99.90
2018-04-15T04:02:09.294Z,99.90
2018-04-15T04:04:36.814Z,99.90
2018-04-15T04:07:07.318Z,99.90
2018-04-15T04:09:34.837Z,99.90
2018-04-15T04:12:02.366Z,99.90
2018-04-15T04:14:29.901Z,99.90
2018-04-15T04:16:58.385Z,99.90
2018-04-15T04:19:37.843Z,99.90
2018-04-15T04:22:17.278Z,99.90
2018-04-15T04:24:57.456Z,99.90
2018-04-15T04:27:24.991Z,99.90
2018-04-15T04:29:52.511Z,99.90
2018-04-15T04:32:20.047Z,99.90
2018-04-15T04:34:48.339Z,99.90
2018-04-15T04:37:18.564Z,99.90
2018-04-15T04:39:46.108Z,99.90
2018-04-15T04:42:13.656Z,99.90
2018-04-15T04:44:41.169Z,99.90
2018-04-15T04:47:24.039Z,99.90
2018-04-15T04:49:52.314Z,99.90
2018-04-15T04:52:19.823Z,99.90
2018-04-15T04:54:47.358Z,99.90
2018-04-15T04:57:14.895Z,99.90
2018-04-15T04:59:43.195Z,99.90
2018-04-15T05:02:10.720Z,99.90
2018-04-15T05:04:38.253Z,99.90
2018-04-15T05:07:33.110Z,99.90
2018-04-15T05:10:00.655Z,99.90
2018-04-15T05:12:28.938Z,99.90
2018-04-15T05:14:56.476Z,99.90
2018-04-15T05:17:24.753Z,99.90
2018-04-15T05:19:53.063Z,99.90
2018-04-15T05:22:20.579Z,99.90
2018-04-15T05:24:48.126Z,99.90
2018-04-15T05:27:17.657Z,99.90
2018-04-15T05:29:45.204Z,99.90
2018-04-15T05:32:13.563Z,99.90
2018-04-15T05:34:41.068Z,99.90
2018-04-15T05:37:08.595Z,99.90
2018-04-15T05:39:36.128Z,99.90
2018-04-15T05:42:03.666Z,99.90
2018-04-15T05:44:31.223Z,99.90
2018-04-15T05:46:59.672Z,99.90
2018-04-15T05:49:27.962Z,99.90
2018-04-15T05:51:55.498Z,99.90
2018-04-15T05:54:23.782Z,99.90
2018-04-15T05:56:53.290Z,99.90
2018-04-15T05:59:21.574Z,99.90
2018-04-15T06:01:49.111Z,99.90
2018-04-15T06:04:17.395Z,99.90
2018-04-15T06:06:46.739Z,99.90
2018-04-15T06:09:15.023Z,99.90
2018-04-15T06:11:42.561Z,99.90
2018-04-15T06:14:10.088Z,99.90
2018-04-15T06:16:39.403Z,99.90
2018-04-15T06:19:06.931Z,99.90
2018-04-15T06:21:34.467Z,99.90
2018-04-15T06:24:01.989Z,99.90
2018-04-15T06:26:31.486Z,99.90
2018-04-15T06:28:59.007Z,99.90
2018-04-15T06:31:26.552Z,99.90
2018-04-15T06:33:54.075Z,99.90
2018-04-15T06:36:28.974Z,99.90
2018-04-15T06:38:56.507Z,99.90
2018-04-15T06:41:24.051Z,99.90
2018-04-15T06:43:51.571Z,99.90
2018-04-15T06:46:19.110Z,99.90
2018-04-15T06:48:47.378Z,99.90
2018-04-15T06:51:15.690Z,99.90
2018-04-15T06:53:43.224Z,99.90
2018-04-15T06:56:12.543Z,99.90
2018-04-15T06:58:40.063Z,99.90
2018-04-15T07:01:07.579Z,99.90
2018-04-15T07:03:35.115Z,99.90
2018-04-15T07:06:02.639Z,99.90
2018-04-15T07:08:38.011Z,99.90
2018-04-15T07:11:05.539Z,99.90
2018-04-15T07:13:33.163Z,99.90
2018-04-15T07:16:00.703Z,99.90
2018-04-15T07:18:28.278Z,99.90
2018-04-15T07:20:55.808Z,99.90
2018-04-15T07:23:23.352Z,99.90
2018-04-15T07:25:51.643Z,99.90
2018-04-15T07:28:19.191Z,99.90
2018-04-15T07:30:47.480Z,99.00
2018-04-15T07:33:16.175Z,98.50
2018-04-15T07:35:43.699Z,98.80
2018-04-15T07:38:13.932Z,96.40
2018-04-15T07:40:41.487Z,96.40
2018-04-15T07:43:09.780Z,95.60
2018-04-15T07:45:37.332Z,95.60
2018-04-15T07:48:05.896Z,95.20
2018-04-15T07:50:34.246Z,94.70
2018-04-15T07:53:01.772Z,94.70
2018-04-15T07:55:29.319Z,95.60
2018-04-15T07:58:24.844Z,96.10
2018-04-15T08:00:52.388Z,95.60
2018-04-15T08:03:19.929Z,97.00
2018-04-15T08:05:48.238Z,95.20
2018-04-15T08:08:30.058Z,95.10
2018-04-15T08:10:57.609Z,94.60
2018-04-15T08:13:25.130Z,93.40
2018-04-15T08:15:52.710Z,92.70
2018-04-15T08:18:30.372Z,91.60
2018-04-15T08:20:58.687Z,89.30
2018-04-15T08:23:26.202Z,89.10
2018-04-15T08:25:54.502Z,90.50
2018-04-15T08:28:48.684Z,90.50
2018-04-15T08:31:16.243Z,91.10
2018-04-15T08:33:43.773Z,88.70
2018-04-15T08:36:11.295Z,87.90
2018-04-15T08:38:38.876Z,86.30
2018-04-15T08:41:06.443Z,83.80
2018-04-15T08:43:34.068Z,81.70
2018-04-15T08:46:01.606Z,79.70
2018-04-15T08:48:46.328Z,75.80
2018-04-15T08:51:13.851Z,78.40
2018-04-15T08:53:41.387Z,80.50
2018-04-15T08:56:08.906Z,79.80
2018-04-15T08:58:36.452Z,77.90
2018-04-15T09:01:03.971Z,78.40
2018-04-15T09:03:31.512Z,79.50
2018-04-15T09:05:59.034Z,79.00
2018-04-15T09:08:26.575Z,78.20
2018-04-15T09:10:54.095Z,78.50
2018-04-15T09:13:21.699Z,79.40
2018-04-15T09:15:50.368Z,80.30
2018-04-15T09:18:41.523Z,80.90
2018-04-15T09:21:09.806Z,75.50
2018-04-15T09:23:38.115Z,72.90
2018-04-15T09:26:05.633Z,72.80
2018-04-15T09:28:33.965Z,71.60
2018-04-15T09:31:07.047Z,71.40
2018-04-15T09:33:34.590Z,72.70
2018-04-15T09:36:02.115Z,73.90
2018-04-15T09:38:50.049Z,70.60
2018-04-15T09:41:18.335Z,71.00
2018-04-15T09:43:46.661Z,66.40
2018-04-15T09:46:14.192Z,66.20
2018-04-15T09:48:41.747Z,65.20
2018-04-15T09:51:09.271Z,66.30
2018-04-15T09:53:36.799Z,68.20
2018-04-15T09:56:04.343Z,67.10
2018-04-15T09:58:31.879Z,63.80
2018-04-15T10:01:03.407Z,64.00
2018-04-15T10:03:31.694Z,64.00
2018-04-15T10:06:00.003Z,61.80
2018-04-15T10:08:46.047Z,61.80
2018-04-15T10:11:14.367Z,61.80
2018-04-15T10:13:41.891Z,60.90
2018-04-15T10:16:10.241Z,57.50
2018-04-15T10:18:37.783Z,57.30
2018-04-15T10:21:05.374Z,55.40
2018-04-15T10:23:32.894Z,55.80
2018-04-15T10:26:00.437Z,54.00
2018-04-15T10:28:27.959Z,54.20
2018-04-15T10:30:56.278Z,52.80
2018-04-15T10:33:23.808Z,52.80
2018-04-15T10:35:51.362Z,54.00
2018-04-15T10:38:38.134Z,53.30
2018-04-15T10:41:05.684Z,53.30
2018-04-15T10:43:33.218Z,51.70
2018-04-15T10:46:00.774Z,51.50
2018-04-15T10:48:29.220Z,50.70
2018-04-15T10:50:57.528Z,48.60
2018-04-15T10:53:25.046Z,48.50
2018-04-15T10:55:52.601Z,49.40
2018-04-15T10:58:24.891Z,49.30
2018-04-15T11:00:53.208Z,54.90
2018-04-15T11:03:20.735Z,55.10
2018-04-15T11:05:48.299Z,48.90
2018-04-15T11:08:22.863Z,45.60
2018-04-15T11:10:50.391Z,48.60
2018-04-15T11:13:17.950Z,47.50
2018-04-15T11:15:45.513Z,46.40
2018-04-15T11:18:32.659Z,42.80
2018-04-15T11:21:00.240Z,42.70
2018-04-15T11:23:27.866Z,40.00
2018-04-15T11:25:55.516Z,41.70
2018-04-15T11:28:30.782Z,40.60
2018-04-15T11:30:58.431Z,41.00
2018-04-15T11:33:26.029Z,41.10
2018-04-15T11:35:54.425Z,41.10
2018-04-15T11:38:26.137Z,39.30
2018-04-15T11:40:53.700Z,39.10
2018-04-15T11:43:22.447Z,38.90
2018-04-15T11:45:50.024Z,39.40
2018-04-15T11:48:18.616Z,36.50
2018-04-15T11:50:46.139Z,38.50
2018-04-15T11:53:13.688Z,37.70
2018-04-15T11:55:41.988Z,35.30
2018-04-15T11:58:09.532Z,35.30
2018-04-15T12:00:37.063Z,36.00
2018-04-15T12:03:04.611Z,37.40
2018-04-15T12:05:32.159Z,36.40
2018-04-15T12:07:59.689Z,36.50
2018-04-15T12:10:27.275Z,37.30
2018-04-15T12:12:54.875Z,36.10
2018-04-15T12:15:23.291Z,35.60
2018-04-15T12:17:50.869Z,35.60
2018-04-15T12:20:18.488Z,35.70
2018-04-15T12:22:46.100Z,34.60
2018-04-15T12:25:13.747Z,31.70
2018-04-15T12:27:46.684Z,32.80
2018-04-15T12:30:15.111Z,32.60
2018-04-15T12:32:42.661Z,32.50
2018-04-15T12:35:10.227Z,34.40
2018-04-15T12:37:39.740Z,29.60
2018-04-15T12:40:07.369Z,30.70
2018-04-15T12:42:35.016Z,31.70
2018-04-15T12:45:02.578Z,34.80
2018-04-15T12:47:30.184Z,33.70
2018-04-15T12:49:57.851Z,35.70
2018-04-15T12:52:25.489Z,33.70
2018-04-15T12:54:53.133Z,33.20
2018-04-15T12:57:21.691Z,34.40
2018-04-15T12:59:49.999Z,32.80
2018-04-15T13:02:17.574Z,32.80
2018-04-15T13:04:45.155Z,33.00
2018-04-15T13:07:13.710Z,32.60
2018-04-15T13:09:41.260Z,33.00
2018-04-15T13:12:08.887Z,29.70
2018-04-15T13:14:37.567Z,28.50
2018-04-15T13:17:06.351Z,29.00
2018-04-15T13:19:34.683Z,32.70
2018-04-15T13:22:02.332Z,32.60
2018-04-15T13:24:29.899Z,32.50
2018-04-15T13:26:58.483Z,32.20
2018-04-15T13:29:26.028Z,32.10
2018-04-15T13:31:53.579Z,33.80
2018-04-15T13:34:21.107Z,31.50
2018-04-15T13:36:49.624Z,32.80
2018-04-15T13:39:17.172Z,31.50
2018-04-15T13:41:44.704Z,31.00
2018-04-15T13:44:12.290Z,33.90
2018-04-15T13:46:39.816Z,34.00
2018-04-15T13:49:09.798Z,33.30
2018-04-15T13:51:37.319Z,33.20
2018-04-15T13:54:04.862Z,35.50
2018-04-15T13:56:34.177Z,34.20
2018-04-15T13:59:02.499Z,33.80
2018-04-15T14:01:30.048Z,33.70
2018-04-15T14:03:57.591Z,31.20
2018-04-15T14:06:46.356Z,32.90
2018-04-15T14:09:13.903Z,32.30
2018-04-15T14:11:41.531Z,32.80
2018-04-15T14:14:09.156Z,33.60
2018-04-15T14:17:13.883Z,31.70
2018-04-15T14:19:41.443Z,30.50
2018-04-15T14:22:09.015Z,28.80
2018-04-15T14:24:36.579Z,30.20
2018-04-15T14:27:04.122Z,29.60
2018-04-15T14:29:31.731Z,32.90
2018-04-15T14:31:59.255Z,32.90
2018-04-15T14:34:26.804Z,33.20
2018-04-15T14:37:04.023Z,33.30
2018-04-15T14:39:31.575Z,33.70
2018-04-15T14:41:59.176Z,33.00
2018-04-15T14:44:26.759Z,33.70
2018-04-15T14:46:55.361Z,34.00
2018-04-15T14:49:22.983Z,33.40
2018-04-15T14:51:51.556Z,32.30
2018-04-15T14:54:19.124Z,31.90
2018-04-15T14:56:48.720Z,31.10
2018-04-15T14:59:16.272Z,33.30
2018-04-15T15:01:43.872Z,32.70
2018-04-15T15:04:11.465Z,33.40
2018-04-15T15:07:06.525Z,34.20
2018-04-15T15:09:34.099Z,35.60
2018-04-15T15:12:01.730Z,36.00
2018-04-15T15:14:29.304Z,36.40
2018-04-15T15:17:00.518Z,36.30
2018-04-15T15:19:28.816Z,37.20
2018-04-15T15:21:56.363Z,37.00
2018-04-15T15:24:23.891Z,37.20
2018-04-15T15:26:58.956Z,37.50
2018-04-15T15:29:26.479Z,37.00
2018-04-15T15:31:54.027Z,37.80
2018-04-15T15:34:21.556Z,38.20
2018-04-15T15:37:19.948Z,38.30
2018-04-15T15:39:47.471Z,37.50
2018-04-15T15:42:15.015Z,38.30
2018-04-15T15:44:43.307Z,37.90
2018-04-15T15:47:10.886Z,37.90
2018-04-15T15:49:38.406Z,38.30
2018-04-15T15:52:06.716Z,35.20
2018-04-15T15:54:34.267Z,35.10
2018-04-15T15:57:14.325Z,36.10
2018-04-15T15:59:41.855Z,33.90
2018-04-15T16:02:10.161Z,32.40
2018-04-15T16:04:37.693Z,32.40
2018-04-15T16:07:09.485Z,31.60
2018-04-15T16:09:37.015Z,32.30
2018-04-15T16:12:04.575Z,30.80
2018-04-15T16:14:32.100Z,32.50
2018-04-15T16:17:07.888Z,32.70
2018-04-15T16:19:35.423Z,33.80
2018-04-15T16:22:02.971Z,34.80
2018-04-15T16:24:30.508Z,37.60
2018-04-15T16:26:59.061Z,38.20
2018-04-15T16:29:26.591Z,39.40
2018-04-15T16:31:54.909Z,41.40
2018-04-15T16:34:23.202Z,42.80
2018-04-15T16:37:11.598Z,42.80
2018-04-15T16:39:39.901Z,43.40
2018-04-15T16:42:07.459Z,43.50
2018-04-15T16:44:34.988Z,44.60
2018-04-15T16:47:12.107Z,44.40
2018-04-15T16:49:39.647Z,46.10
2018-04-15T16:52:07.171Z,44.80
2018-04-15T16:54:34.707Z,46.40
2018-04-15T16:57:04.171Z,47.60
2018-04-15T16:59:31.744Z,47.20
2018-04-15T17:01:59.273Z,47.80
2018-04-15T17:04:27.583Z,48.20
2018-04-15T17:06:57.038Z,48.20
2018-04-15T17:09:25.725Z,49.90
2018-04-15T17:11:54.023Z,51.00
2018-04-15T17:14:21.585Z,51.00
2018-04-15T17:16:51.072Z,52.50
2018-04-15T17:19:19.399Z,57.20
2018-04-15T17:21:46.914Z,57.20
2018-04-15T17:24:15.220Z,61.50
2018-04-15T17:26:43.764Z,61.50
2018-04-15T17:29:11.345Z,61.10
2018-04-15T17:31:39.815Z,62.40
2018-04-15T17:34:07.369Z,61.80
2018-04-15T17:36:34.907Z,59.90
2018-04-15T17:39:02.472Z,60.20
2018-04-15T17:41:30.027Z,60.00
2018-04-15T17:43:57.575Z,59.30
2018-04-15T17:46:27.117Z,59.40
2018-04-15T17:48:54.653Z,60.60
2018-04-15T17:51:23.343Z,62.50
2018-04-15T17:53:51.643Z,64.00
2018-04-15T17:56:20.123Z,63.90
2018-04-15T17:58:47.651Z,67.40
2018-04-15T18:01:15.199Z,67.20
2018-04-15T18:03:42.715Z,62.60
2018-04-15T18:06:10.260Z,62.80
2018-04-15T18:08:37.842Z,67.90
2018-04-15T18:11:05.439Z,69.30
2018-04-15T18:13:33.037Z,66.00
2018-04-15T18:16:00.663Z,69.40
2018-04-15T18:18:30.185Z,72.00
2018-04-15T18:20:58.538Z,73.50
2018-04-15T18:23:26.051Z,73.30
2018-04-15T18:25:53.602Z,74.30
2018-04-15T18:28:21.136Z,74.60
2018-04-15T18:30:48.705Z,76.20
2018-04-15T18:33:16.999Z,77.60
2018-04-15T18:35:44.583Z,77.60
2018-04-15T18:38:30.308Z,74.40
2018-04-15T18:40:57.900Z,74.10
2018-04-15T18:43:25.428Z,75.20
2018-04-15T18:45:52.979Z,75.40
2018-04-15T18:48:21.474Z,77.00
2018-04-15T18:50:49.007Z,78.20
2018-04-15T18:53:16.555Z,78.20
2018-04-15T18:55:44.077Z,78.40
2018-04-15T18:58:11.634Z,78.10
2018-04-15T19:00:39.160Z,80.00
2018-04-15T19:03:06.701Z,82.10
2018-04-15T19:05:34.227Z,81.50
2018-04-15T19:08:02.787Z,81.90
2018-04-15T19:10:30.317Z,82.10
2018-04-15T19:12:58.728Z,83.60
2018-04-15T19:15:26.313Z,83.20
2018-04-15T19:17:54.921Z,82.50
2018-04-15T19:20:22.584Z,82.80
2018-04-15T19:22:50.177Z,83.50
2018-04-15T19:25:18.882Z,84.10
2018-04-15T19:27:48.379Z,84.70
2018-04-15T19:30:15.899Z,84.30
2018-04-15T19:32:43.456Z,85.20
2018-04-15T19:35:10.979Z,86.00
2018-04-15T19:37:52.539Z,87.60
2018-04-15T19:40:20.100Z,88.30
2018-04-15T19:42:47.678Z,88.20
2018-04-15T19:45:15.220Z,88.10
2018-04-15T19:47:43.678Z,88.40
2018-04-15T19:50:12.040Z,90.30
2018-04-15T19:52:39.595Z,90.30
2018-04-15T19:55:08.363Z,91.30
2018-04-15T19:57:36.891Z,91.60
2018-04-15T20:00:05.199Z,91.70
2018-04-15T20:02:32.728Z,91.70
2018-04-15T20:05:01.035Z,90.20
2018-04-15T20:07:28.559Z,90.20
2018-04-15T20:09:56.132Z,89.40
2018-04-15T20:12:24.790Z,89.70
2018-04-15T20:14:52.331Z,90.10
2018-04-15T20:17:19.852Z,89.60
2018-04-15T20:19:47.422Z,89.10
2018-04-15T20:22:14.932Z,88.90
2018-04-15T20:24:43.238Z,90.50
2018-04-15T20:27:12.744Z,90.50
2018-04-15T20:29:40.272Z,90.50
2018-04-15T20:32:08.583Z,90.00
2018-04-15T20:34:36.116Z,90.00
2018-04-15T20:37:06.373Z,89.90
2018-04-15T20:39:33.895Z,89.90
2018-04-15T20:42:02.205Z,90.70
2018-04-15T20:44:29.731Z,90.70
2018-04-15T20:46:58.037Z,91.10
2018-04-15T20:49:25.568Z,91.10
2018-04-15T20:51:53.106Z,91.30
2018-04-15T20:54:21.769Z,91.80
2018-04-15T20:56:57.908Z,92.10
2018-04-15T20:59:25.434Z,93.00
2018-04-15T21:01:53.807Z,93.50
2018-04-15T21:04:22.119Z,93.10
2018-04-15T21:06:58.991Z,93.10
2018-04-15T21:09:26.516Z,93.00
2018-04-15T21:11:54.867Z,93.40
2018-04-15T21:14:22.390Z,93.40
2018-04-15T21:16:55.555Z,93.30
2018-04-15T21:19:23.099Z,93.00
2018-04-15T21:21:51.394Z,92.60
2018-04-15T21:24:18.947Z,92.60
2018-04-15T21:27:00.121Z,94.10
2018-04-15T21:29:28.432Z,94.60
2018-04-15T21:31:55.955Z,94.60
2018-04-15T21:34:24.272Z,94.30
2018-04-15T21:37:04.571Z,94.20
2018-04-15T21:39:32.115Z,91.90
2018-04-15T21:41:59.639Z,92.30
2018-04-15T21:44:27.203Z,91.90
2018-04-15T21:47:15.780Z,91.80
2018-04-15T21:49:43.331Z,92.20
2018-04-15T21:52:10.868Z,92.50
2018-04-15T21:54:38.395Z,93.10
2018-04-15T21:57:06.730Z,93.50
2018-04-15T21:59:34.251Z,93.50
2018-04-15T22:02:01.827Z,94.20
2018-04-15T22:04:29.380Z,94.50
2018-04-15T22:06:57.839Z,94.70
2018-04-15T22:09:25.378Z,94.90
2018-04-15T22:12:05.459Z,94.60
2018-04-15T22:14:32.979Z,94.60
2018-04-15T22:17:01.487Z,94.40
2018-04-15T22:19:29.011Z,94.20
2018-04-15T22:21:56.575Z,94.30
2018-04-15T22:24:24.099Z,94.60
2018-04-15T22:26:51.640Z,95.20
2018-04-15T22:29:19.162Z,95.80
2018-04-15T22:31:47.467Z,96.00
2018-04-15T22:34:14.991Z,96.00
2018-04-15T22:36:59.439Z,96.10
2018-04-15T22:39:26.951Z,96.60
2018-04-15T22:41:54.491Z,97.50
2018-04-15T22:44:22.019Z,98.00
2018-04-15T22:46:50.541Z,97.00
2018-04-15T22:49:23.003Z,96.60
2018-04-15T22:51:50.593Z,96.70
2018-04-15T22:54:18.117Z,97.20
2018-04-15T22:56:45.647Z,96.60
2018-04-15T22:59:13.191Z,97.10
2018-04-15T23:01:40.713Z,96.90
2018-04-15T23:04:08.263Z,97.20
2018-04-15T23:06:37.736Z,97.90
2018-04-15T23:09:06.048Z,95.20
2018-04-15T23:11:33.563Z,95.20
2018-04-15T23:14:01.131Z,94.70
2018-04-15T23:16:37.206Z,95.10
2018-04-15T23:19:05.511Z,95.10
2018-04-15T23:21:33.043Z,95.10
2018-04-15T23:24:01.351Z,96.20
2018-04-15T23:26:36.443Z,95.80
2018-04-15T23:29:04.755Z,97.30
2018-04-15T23:31:32.291Z,97.20
2018-04-15T23:33:59.832Z,97.30
2018-04-15T23:36:37.750Z,97.80
2018-04-15T23:39:06.063Z,97.80
2018-04-15T23:41:34.347Z,98.20
2018-04-15T23:44:01.944Z,98.20
2018-04-15T23:46:43.715Z,97.60
2018-04-15T23:49:11.282Z,97.00
2018-04-15T23:51:38.806Z,97.10
2018-04-15T23:54:06.331Z,97.20
2018-04-15T23:56:33.924Z,97.50
2018-04-15T23:59:01.518Z,97.80
